Latest Weather Observations for Central Arnhem Plateau

IDD60801

Issued at 5:33 pm CST Friday 27 March 2015 (issued every 30 minutes, with the page automatically refreshed every 10 minutes)

About weather observations | Map of weather stations | Latest weather observations for NT | Other Formats
Station Details ID: 014909 Name: CENTRAL ARNHEM PLATEAU Lat: -13.33 Lon: 133.09 Height: 416.0 m
Data from the previous 72 hours. | See also: Recent months for locations in Northern Territory
Date/Time
CST
Temp
°C
App
Temp
°C
Dew
Point
Rel
Hum
%
Delta-T
°C
Wind Press
QNH
hPa
Press
MSL
hPa
Rain
since 9 am
mm
Dir
 
Spd
km/h
Gust
km/h
Spd
kts
Gust
kts
27/05:30pm 29.1 29.4 17.9 50 7.2 SE 13 20 7 11 1013.9 1010.9 0.0
27/05:00pm 29.7 30.3 16.8 45 8.2 SE 9 19 5 10 1013.9 1010.9 0.0
27/04:30pm 29.5 30.5 17.7 49 7.6 N 9 11 5 6 1013.6 1010.7 0.0
27/04:00pm 29.3 29.7 15.4 42 8.7 N 7 13 4 7 1013.2 1010.3 0.0
27/03:30pm 30.5 30.0 15.8 41 9.3 SSE 13 17 7 9 1013.3 1010.4 0.0
27/03:00pm 30.9 29.6 15.7 39 9.6 E 17 24 9 13 1013.7 1010.8 0.0
27/02:30pm 31.5 31.2 17.4 43 9.1 ENE 15 22 8 12 1014.1 1011.1 0.0
27/02:00pm 31.1 31.4 17.8 45 8.6 NE 13 30 7 16 1014.8 1011.8 0.0
27/01:30pm 31.1 30.9 16.7 42 9.2 NNE 13 22 7 12 1015.2 1012.3 0.0
27/01:00pm 30.6 30.5 17.0 44 8.7 ENE 13 20 7 11 1015.7 1012.8 0.0
27/12:30pm 30.4 33.0 18.5 49 7.8 NNE 2 7 1 4 1016.2 1013.3 0.0
27/12:00pm 29.3 31.5 17.5 49 7.6 SE 2 6 1 3 1016.6 1013.6 0.0
27/11:30am 28.8 30.9 18.9 55 6.5 NNW 6 9 3 5 1017.2 1014.3 0.0
27/11:00am 28.1 30.6 19.1 58 5.9 ESE 4 9 2 5 1017.4 1014.5 0.0
27/10:30am 27.3 28.9 19.1 61 5.4 NNE 9 11 5 6 1017.6 1014.7 0.0
27/10:00am 26.9 28.6 19.3 63 5.0 NNW 9 13 5 7 1017.8 1014.9 0.0
27/09:30am 26.5 28.8 19.9 67 4.4 NW 7 13 4 7 1017.9 1015.0 0.0
27/09:00am 25.1 27.7 20.4 75 3.1 WNW 7 11 4 6 1017.8 1014.9 4.4
27/08:30am 24.6 27.9 19.9 75 3.1 NE 2 6 1 3 1017.7 1014.8 4.4
27/08:00am 24.2 26.6 20.1 78 2.7 NNE 7 11 4 6 1017.3 1014.4 4.4
27/07:30am 22.7 26.0 19.9 84 1.8 NE 2 7 1 4 1016.9 1013.9 4.4
27/07:00am 21.9 25.4 19.6 87 1.5 CALM 0 0 0 0 1016.3 1013.4 4.4
27/06:30am 22.0 25.6 19.7 87 1.5 CALM 0 0 0 0 1015.9 1013.0 4.4
27/06:00am 22.0 25.1 19.5 86 1.6 ENE 2 7 1 4 1016.0 1013.1 4.4
27/05:30am 22.0 24.4 19.7 87 1.5 E 6 9 3 5 1015.8 1012.9 4.4
27/05:00am 21.9 24.1 19.5 86 1.6 E 7 11 4 6 1015.6 1012.7 4.4
27/04:30am 22.1 23.9 19.6 86 1.6 E 9 13 5 7 1015.5 1012.6 4.4
27/04:00am 22.2 24.1 19.7 86 1.6 ENE 9 11 5 6 1015.7 1012.8 4.4
27/03:30am 22.2 23.3 19.7 86 1.6 ENE 13 15 7 8 1015.9 1013.0 4.4
27/03:00am 22.4 23.2 19.8 85 1.7 E 15 20 8 11 1016.0 1013.1 4.4
27/02:30am 22.5 23.7 20.0 86 1.6 ENE 13 17 7 9 1016.5 1013.5 4.4
27/02:00am 22.6 23.0 19.9 85 1.8 E 17 24 9 13 1016.7 1013.7 4.4
27/01:30am 22.7 22.9 20.2 86 1.6 E 19 26 10 14 1016.9 1013.9 4.4
27/01:00am 22.7 24.1 20.4 87 1.5 E 13 20 7 11 1017.2 1014.3 4.4
27/12:30am 22.8 24.7 20.5 87 1.5 E 11 15 6 8 1017.7 1014.8 4.4
27/12:00am 22.9 24.4 20.6 87 1.5 E 13 17 7 9 1017.9 1015.0 4.4
 
Date/Time
CST
Temp
°C
App
Temp
°C
Dew
Point
Rel
Hum
%
Delta-T
°C
Wind Press
QNH
hPa
Press
MSL
hPa
Rain
since 9 am
mm
Dir
 
Spd
km/h
Gust
km/h
Spd
kts
Gust
kts
26/11:30pm 22.8 24.4 20.7 88 1.4 ESE 13 19 7 10 1018.3 1015.4 4.4
26/11:00pm 22.9 24.5 20.8 88 1.4 E 13 17 7 9 1018.6 1015.7 4.4
26/10:30pm 22.8 24.4 20.7 88 1.4 ESE 13 17 7 9 1018.7 1015.8 4.4
26/10:00pm 22.9 24.5 20.8 88 1.4 E 13 19 7 10 1018.7 1015.8 4.2
26/09:30pm 22.7 23.9 20.6 88 1.4 E 15 19 8 10 1018.5 1015.6 3.6
26/09:00pm 22.6 24.1 20.5 88 1.4 E 13 19 7 10 1018.0 1015.1 3.0
26/08:30pm 22.6 22.4 20.5 88 1.4 ESE 22 28 12 15 1017.5 1014.6 1.8
26/08:00pm 22.9 23.1 20.6 87 1.5 ESE 20 26 11 14 1016.9 1013.9 1.4
26/07:30pm 23.4 24.2 20.7 85 1.8 SE 17 22 9 12 1016.1 1013.2 0.6
26/07:00pm 24.1 25.4 20.8 82 2.2 ESE 15 20 8 11 1015.9 1013.0 0.6
26/06:30pm 24.3 25.3 21.0 82 2.2 ESE 17 24 9 13 1015.5 1012.6 0.6
26/06:00pm 25.0 28.3 20.7 77 2.9 E 4 7 2 4 1014.4 1011.4 0.6
26/05:30pm 24.9 27.8 21.0 79 2.6 E 7 15 4 8 1014.0 1011.0 0.6
26/05:00pm 24.9 27.8 21.0 79 2.6 E 7 9 4 5 1014.0 1011.0 0.6
26/04:30pm 23.9 26.8 20.6 82 2.2 NW 6 7 3 4 1013.5 1010.6 0.6
26/04:00pm 23.9 21.5 19.0 74 3.2 NNE 30 43 16 23 1013.5 1010.6 0.4
26/03:50pm 27.9 27.4 19.1 58 5.8 ENE 20 46 11 25 1013.2 1010.3 0.4
26/03:30pm 28.8 29.9 20.5 61 5.6 ENE 15 20 8 11 1013.0 1010.1 0.4
26/03:00pm 27.7 29.2 21.3 68 4.3 NE 15 22 8 12 1013.3 1010.4 0.4
26/02:30pm 26.8 27.4 21.1 71 3.8 NNE 19 30 10 16 1013.9 1010.9 0.4
26/02:00pm 30.0 31.0 21.1 59 6.0 ENE 17 24 9 13 1013.6 1010.7 0.4
26/01:30pm 29.9 30.1 20.2 56 6.5 NE 19 24 10 13 1014.2 1011.2 0.4
26/01:00pm 29.5 30.5 21.7 63 5.3 NE 19 26 10 14 1014.8 1011.8 0.4
26/12:30pm 28.4 28.7 20.7 63 5.2 NE 20 26 11 14 1015.4 1012.5 0.4
26/12:00pm 28.0 30.0 22.2 70 4.0 NNE 15 24 8 13 1016.0 1013.1 0.4
26/11:30am 27.4 28.4 21.0 68 4.3 NE 17 24 9 13 1016.5 1013.5 0.0
26/11:00am 27.7 27.9 20.5 65 4.8 NE 20 28 11 15 1016.8 1013.8 0.0
26/10:30am 27.8 28.4 21.1 67 4.5 ENE 19 24 10 13 1017.2 1014.3 0.0
26/10:00am 26.6 27.1 20.9 71 3.8 NE 19 26 10 14 1017.3 1014.4 0.0
26/09:30am 25.7 25.1 20.5 73 3.5 ENE 24 33 13 18 1017.1 1014.2 0.0
26/09:00am 25.2 25.5 20.7 76 3.0 NE 20 26 11 14 1016.7 1013.7 0.0
26/08:30am 24.9 25.4 20.8 78 2.7 ENE 19 26 10 14 1016.3 1013.4 0.0
26/08:00am 24.2 25.0 20.7 81 2.3 ENE 17 24 9 13 1016.1 1013.2 0.0
26/07:30am 23.9 25.2 20.8 83 2.1 ENE 15 19 8 10 1015.8 1012.9 0.0
26/07:00am 23.6 24.4 20.7 84 1.9 ENE 17 20 9 11 1015.4 1012.5 0.0
26/06:30am 23.6 25.7 20.9 85 1.8 ENE 11 15 6 8 1015.3 1012.4 0.0
26/06:00am 23.7 25.7 20.8 84 1.9 ENE 11 15 6 8 1015.0 1012.1 0.0
26/05:30am 23.5 25.9 20.8 85 1.8 ENE 9 13 5 7 1014.8 1011.8 0.0
26/05:00am 23.6 25.3 20.9 85 1.8 ENE 13 17 7 9 1014.5 1011.5 0.0
26/04:30am 23.6 25.2 20.7 84 1.9 ENE 13 17 7 9 1014.0 1011.0 0.0
26/04:00am 23.8 25.5 20.9 84 1.9 NE 13 17 7 9 1013.9 1010.9 0.0
26/03:30am 23.6 25.3 20.9 85 1.8 NE 13 19 7 10 1013.7 1010.8 0.0
26/03:00am 23.9 25.7 21.2 85 1.8 ENE 13 17 7 9 1014.0 1011.0 0.0
26/02:30am 24.0 26.1 20.9 83 2.1 NE 11 17 6 9 1014.2 1011.2 0.0
26/02:00am 24.1 25.8 21.0 83 2.1 NE 13 17 7 9 1014.4 1011.4 0.0
26/01:30am 24.3 26.1 21.2 83 2.1 NE 13 20 7 11 1014.6 1011.6 0.0
26/01:00am 24.3 26.1 21.2 83 2.1 NNE 13 19 7 10 1014.8 1011.8 0.0
26/12:30am 24.3 26.0 21.0 82 2.2 NE 13 20 7 11 1014.9 1012.0 0.0
26/12:00am 24.3 25.7 21.0 82 2.2 NNE 15 22 8 12 1014.9 1012.0 0.0
 
Date/Time
CST
Temp
°C
App
Temp
°C
Dew
Point
Rel
Hum
%
Delta-T
°C
Wind Press
QNH
hPa
Press
MSL
hPa
Rain
since 9 am
mm
Dir
 
Spd
km/h
Gust
km/h
Spd
kts
Gust
kts
25/11:30pm 24.4 25.9 21.3 83 2.1 NNE 15 22 8 12 1014.9 1012.0 0.0
25/11:00pm 24.3 25.8 21.2 83 2.1 NNE 15 22 8 12 1015.1 1012.2 0.0
25/10:30pm 24.4 25.5 21.3 83 2.1 NE 17 26 9 14 1015.0 1012.1 0.0
25/10:00pm 24.7 25.9 21.4 82 2.2 NE 17 26 9 14 1015.0 1012.1 0.0
25/09:30pm 24.8 25.9 21.3 81 2.3 NNE 17 24 9 13 1014.4 1011.4 0.0
25/09:00pm 24.8 26.7 21.3 81 2.3 NNE 13 24 7 13 1014.1 1011.1 0.0
25/08:30pm 24.8 27.0 21.1 80 2.5 N 11 15 6 8 1013.6 1010.7 0.0
25/08:00pm 25.1 26.7 20.8 77 2.9 N 13 17 7 9 1013.5 1010.6 0.0
25/07:30pm 25.9 27.9 20.7 73 3.5 N 11 19 6 10 1013.3 1010.4 0.0
25/07:00pm 26.1 27.5 20.4 71 3.8 N 13 19 7 10 1012.6 1009.6 0.0
25/06:30pm 26.4 27.8 20.3 69 4.1 N 13 20 7 11 1012.2 1009.2 0.0
25/06:00pm 26.4 27.4 20.3 69 4.1 N 15 22 8 12 1011.7 1008.7 0.0
25/05:30pm 27.0 27.0 20.1 66 4.6 N 20 32 11 17 1011.1 1008.2 0.0
25/05:00pm 26.9 26.8 20.0 66 4.6 N 20 35 11 19 1010.9 1008.0 0.0
25/04:30pm 27.5 28.3 20.6 66 4.6 N 17 28 9 15 1010.6 1007.7 0.0
25/04:00pm 27.1 27.5 20.7 68 4.3 N 19 28 10 15 1010.6 1007.7 0.0
25/03:30pm 26.0 26.0 21.0 74 3.4 N 22 35 12 19 1010.7 1007.8 0.0
25/03:23pm 28.0 28.1 20.3 63 5.1 N 20 32 11 17 1010.5 1007.6 0.0
25/03:22pm 21.6 21.9 20.7 95 0.6 N 20 32 11 17 1010.4 1007.4 0.0
25/03:00pm 28.0 28.1 20.0 61 5.3 N 19 32 10 17 1010.5 1007.6 0.0
25/02:30pm 27.5 27.8 20.3 65 4.8 N 19 28 10 15 1010.7 1007.8 0.0
25/02:00pm 27.6 27.9 20.4 65 4.8 N 19 28 10 15 1010.9 1008.0 0.0
25/01:30pm 27.6 27.2 20.2 64 4.9 NNE 22 33 12 18 1011.4 1008.4 0.0
25/01:00pm 26.2 26.8 21.0 73 3.5 NNW 19 28 10 15 1012.0 1009.0 0.0
25/12:30pm 26.3 25.4 19.9 68 4.2 NNE 24 41 13 22 1012.5 1009.5 0.0
25/12:00pm 26.5 25.8 20.3 68 4.1 NNE 24 35 13 19 1012.5 1009.5 0.0
25/11:30am 25.8 24.6 20.1 71 3.8 NNE 26 39 14 21 1012.7 1009.8 0.0
25/11:00am 26.0 25.5 20.8 73 3.5 NNE 24 33 13 18 1012.9 1010.0 0.0
25/10:30am 25.7 24.4 20.7 74 3.3 NE 28 43 15 23 1012.9 1010.0 0.0
25/10:00am 24.7 23.5 20.0 75 3.1 NE 26 35 14 19 1013.0 1010.1 0.0
25/09:30am 23.8 22.6 20.1 80 2.4 NE 26 39 14 21 1013.0 1010.1 0.0
25/09:00am 23.1 22.5 20.6 86 1.7 NE 24 37 13 20 1012.7 1009.8 0.0
25/08:30am 22.8 21.3 20.3 86 1.6 NE 28 35 15 19 1012.2 1009.2 0.0
25/08:00am 22.7 22.1 20.4 87 1.5 NE 24 33 13 18 1012.0 1009.0 0.0
25/07:30am 22.3 21.8 20.0 87 1.5 NE 22 30 12 16 1011.7 1008.7 0.0
25/07:00am 22.6 22.2 20.1 86 1.6 NE 22 32 12 17 1011.2 1008.3 0.0
25/06:30am 22.7 22.0 20.2 86 1.6 NE 24 35 13 19 1010.7 1007.8 0.0
25/06:00am 22.5 22.5 20.2 87 1.5 NE 20 35 11 19 1010.3 1007.3 0.0
25/05:30am 22.6 22.7 20.3 87 1.5 NE 20 35 11 19 1010.0 1007.0 0.0
25/05:00am 22.4 22.4 20.1 87 1.5 NE 20 30 11 16 1009.9 1006.9 0.0
25/04:30am 22.2 21.8 20.1 88 1.4 ENE 22 32 12 17 1009.6 1006.6 0.0
25/04:00am 22.3 21.9 20.2 88 1.4 ENE 22 35 12 19 1009.7 1006.7 0.0
25/03:30am 22.3 21.6 20.2 88 1.4 ENE 24 39 13 21 1009.6 1006.6 0.0
25/03:00am 22.3 21.5 20.0 87 1.5 ENE 24 35 13 19 1009.8 1006.8 0.0
25/02:30am 22.7 22.3 20.2 86 1.6 ENE 22 32 12 17 1009.9 1006.9 0.0
25/02:00am 22.8 22.9 20.3 86 1.6 ENE 20 30 11 16 1010.1 1007.1 0.0
25/01:30am 23.0 22.7 20.3 85 1.8 ENE 22 28 12 15 1010.3 1007.3 0.0
25/01:00am 22.9 23.0 20.4 86 1.6 ENE 20 32 11 17 1010.6 1007.7 0.0
25/12:30am 22.8 22.1 20.3 86 1.6 ENE 24 35 13 19 1010.9 1008.0 0.0
25/12:00am 22.7 22.7 20.2 86 1.6 ENE 20 30 11 16 1011.1 1008.2 0.0
 
Date/Time
CST
Temp
°C
App
Temp
°C
Dew
Point
Rel
Hum
%
Delta-T
°C
Wind Press
QNH
hPa
Press
MSL
hPa
Rain
since 9 am
mm
Dir
 
Spd
km/h
Gust
km/h
Spd
kts
Gust
kts
24/11:30pm 22.7 22.4 20.4 87 1.5 NE 22 32 12 17 1011.2 1008.3 0.0
24/11:00pm 22.6 22.7 20.3 87 1.5 NE 20 28 11 15 1011.2 1008.3 0.0
24/10:30pm 22.6 23.3 20.5 88 1.4 NE 17 24 9 13 1011.4 1008.4 0.0
24/10:00pm 22.1 24.2 20.2 89 1.2 ENE 9 15 5 8 1011.5 1008.5 0.0
24/09:30pm 21.7 24.0 19.8 89 1.2 SE 7 11 4 6 1011.2 1008.3 0.0
24/09:00pm 21.5 22.2 19.6 89 1.2 NNE 15 28 8 15 1010.9 1008.0 0.0
24/08:30pm 21.3 20.2 19.4 89 1.2 SE 24 32 13 17 1010.3 1007.3 0.0
24/08:00pm 21.2 20.7 19.1 88 1.3 SE 20 30 11 16 1010.3 1007.3 0.0
24/07:30pm 21.5 21.3 19.4 88 1.4 SSE 19 26 10 14 1010.0 1007.0 0.0
24/07:00pm 21.7 21.4 19.6 88 1.4 SE 20 32 11 17 1009.6 1006.6 0.0
24/06:30pm 21.8 21.6 19.7 88 1.4 SSE 20 28 11 15 1009.1 1006.1 0.0
24/06:00pm 21.8 21.9 19.9 89 1.2 SSE 19 24 10 13 1008.9 1005.9 0.0

Other Formats:

Comma delimited format used in spreadsheet applications
http://www.bom.gov.au/fwo/IDD60801/IDD60801.94141.axf

JavaScript Object Notation format (JSON) in row-major order
http://www.bom.gov.au/fwo/IDD60801/IDD60801.94141.json